sensor_id;sensor_type;location;lat;lon;timestamp;temperature;humidity
7411;DHT22;3747;48.628;9.058;2022-07-25T00:01:53;17.70;99.90
7411;DHT22;3747;48.628;9.058;2022-07-25T00:04:20;17.70;99.90
7411;DHT22;3747;48.628;9.058;2022-07-25T00:06:47;17.70;99.90
7411;DHT22;3747;48.628;9.058;2022-07-25T00:09:14;17.80;99.90
7411;DHT22;3747;48.628;9.058;2022-07-25T00:11:40;17.80;99.90
7411;DHT22;3747;48.628;9.058;2022-07-25T00:14:07;17.70;99.90
7411;DHT22;3747;48.628;9.058;2022-07-25T00:16:34;17.60;99.90
7411;DHT22;3747;48.628;9.058;2022-07-25T00:19:02;17.50;99.90
7411;DHT22;3747;48.628;9.058;2022-07-25T00:21:29;17.50;99.90
7411;DHT22;3747;48.628;9.058;2022-07-25T00:23:55;17.40;99.90
7411;DHT22;3747;48.628;9.058;2022-07-25T00:26:22;17.40;99.90
7411;DHT22;3747;48.628;9.058;2022-07-25T00:28:49;17.50;99.90
7411;DHT22;3747;48.628;9.058;2022-07-25T00:31:15;17.50;99.90
7411;DHT22;3747;48.628;9.058;2022-07-25T00:33:42;17.50;99.90
7411;DHT22;3747;48.628;9.058;2022-07-25T00:36:10;17.50;99.90
7411;DHT22;3747;48.628;9.058;2022-07-25T00:38:37;17.40;99.90
7411;DHT22;3747;48.628;9.058;2022-07-25T00:41:04;17.50;99.90
7411;DHT22;3747;48.628;9.058;2022-07-25T00:43:31;17.50;99.90
7411;DHT22;3747;48.628;9.058;2022-07-25T00:45:58;17.70;99.90
7411;DHT22;3747;48.628;9.058;2022-07-25T00:48:25;17.70;99.90
7411;DHT22;3747;48.628;9.058;2022-07-25T00:50:52;18.00;99.90
7411;DHT22;3747;48.628;9.058;2022-07-25T00:53:20;18.20;99.90
7411;DHT22;3747;48.628;9.058;2022-07-25T00:55:47;18.20;99.90
7411;DHT22;3747;48.628;9.058;2022-07-25T00:58:14;18.00;99.90
7411;DHT22;3747;48.628;9.058;2022-07-25T01:00:43;17.90;99.90
7411;DHT22;3747;48.628;9.058;2022-07-25T01:03:10;17.70;99.90
7411;DHT22;3747;48.628;9.058;2022-07-25T01:05:36;17.70;99.90
7411;DHT22;3747;48.628;9.058;2022-07-25T01:08:04;17.60;99.90
7411;DHT22;3747;48.628;9.058;2022-07-25T01:10:32;17.50;99.90
7411;DHT22;3747;48.628;9.058;2022-07-25T01:12:59;17.60;99.90
7411;DHT22;3747;48.628;9.058;2022-07-25T01:15:26;17.70;99.90
7411;DHT22;3747;48.628;9.058;2022-07-25T01:17:53;17.90;99.90
7411;DHT22;3747;48.628;9.058;2022-07-25T01:20:22;18.00;99.90
7411;DHT22;3747;48.628;9.058;2022-07-25T01:22:50;18.00;99.90
7411;DHT22;3747;48.628;9.058;2022-07-25T01:25:17;17.90;99.90
7411;DHT22;3747;48.628;9.058;2022-07-25T01:27:45;17.60;99.90
7411;DHT22;3747;48.628;9.058;2022-07-25T01:30:14;17.40;99.90
7411;DHT22;3747;48.628;9.058;2022-07-25T01:32:42;17.30;99.90
7411;DHT22;3747;48.628;9.058;2022-07-25T01:35:10;17.10;99.90
7411;DHT22;3747;48.628;9.058;2022-07-25T01:37:38;17.00;99.90
7411;DHT22;3747;48.628;9.058;2022-07-25T01:40:06;17.00;99.90
7411;DHT22;3747;48.628;9.058;2022-07-25T01:42:33;16.90;99.90
7411;DHT22;3747;48.628;9.058;2022-07-25T01:45:00;16.90;99.90
7411;DHT22;3747;48.628;9.058;2022-07-25T01:47:27;16.80;99.90
7411;DHT22;3747;48.628;9.058;2022-07-25T01:49:53;16.70;99.90
7411;DHT22;3747;48.628;9.058;2022-07-25T01:52:20;16.70;99.90
7411;DHT22;3747;48.628;9.058;2022-07-25T01:54:48;16.80;99.90
7411;DHT22;3747;48.628;9.058;2022-07-25T01:57:15;16.70;99.90
7411;DHT22;3747;48.628;9.058;2022-07-25T01:59:41;16.70;99.90
7411;DHT22;3747;48.628;9.058;2022-07-25T02:02:08;16.70;99.90
7411;DHT22;3747;48.628;9.058;2022-07-25T02:04:36;16.70;99.90
7411;DHT22;3747;48.628;9.058;2022-07-25T02:07:03;16.80;99.90
7411;DHT22;3747;48.628;9.058;2022-07-25T02:09:30;17.00;99.90
7411;DHT22;3747;48.628;9.058;2022-07-25T02:11:58;17.00;99.90
7411;DHT22;3747;48.628;9.058;2022-07-25T02:14:24;16.90;99.90
7411;DHT22;3747;48.628;9.058;2022-07-25T02:16:52;16.90;99.90
7411;DHT22;3747;48.628;9.058;2022-07-25T02:19:18;17.00;99.90
7411;DHT22;3747;48.628;9.058;2022-07-25T02:21:45;16.90;99.90
7411;DHT22;3747;48.628;9.058;2022-07-25T02:24:12;16.80;99.90
7411;DHT22;3747;48.628;9.058;2022-07-25T02:26:38;16.70;99.90
7411;DHT22;3747;48.628;9.058;2022-07-25T02:29:07;16.60;99.90
7411;DHT22;3747;48.628;9.058;2022-07-25T02:31:33;16.60;99.90
7411;DHT22;3747;48.628;9.058;2022-07-25T02:34:00;16.60;99.90
7411;DHT22;3747;48.628;9.058;2022-07-25T02:36:27;16.60;99.90
7411;DHT22;3747;48.628;9.058;2022-07-25T02:38:53;16.60;99.90
7411;DHT22;3747;48.628;9.058;2022-07-25T02:41:20;16.80;99.90
7411;DHT22;3747;48.628;9.058;2022-07-25T02:43:47;16.90;99.90
7411;DHT22;3747;48.628;9.058;2022-07-25T02:46:15;16.90;99.90
7411;DHT22;3747;48.628;9.058;2022-07-25T02:48:42;16.80;99.90
7411;DHT22;3747;48.628;9.058;2022-07-25T02:51:08;16.70;99.90
7411;DHT22;3747;48.628;9.058;2022-07-25T02:53:35;16.60;99.90
7411;DHT22;3747;48.628;9.058;2022-07-25T02:56:02;16.60;99.90
7411;DHT22;3747;48.628;9.058;2022-07-25T02:58:28;16.50;99.90
7411;DHT22;3747;48.628;9.058;2022-07-25T03:00:55;16.50;99.90
7411;DHT22;3747;48.628;9.058;2022-07-25T03:03:23;16.60;99.90
7411;DHT22;3747;48.628;9.058;2022-07-25T03:05:50;16.60;99.90
7411;DHT22;3747;48.628;9.058;2022-07-25T03:08:16;16.50;99.90
7411;DHT22;3747;48.628;9.058;2022-07-25T03:10:43;16.50;99.90
7411;DHT22;3747;48.628;9.058;2022-07-25T03:13:10;16.60;99.90
7411;DHT22;3747;48.628;9.058;2022-07-25T03:15:36;16.90;99.90
7411;DHT22;3747;48.628;9.058;2022-07-25T03:18:03;17.10;99.90
7411;DHT22;3747;48.628;9.058;2022-07-25T03:20:31;17.20;99.90
7411;DHT22;3747;48.628;9.058;2022-07-25T03:22:58;17.20;99.90
7411;DHT22;3747;48.628;9.058;2022-07-25T03:25:24;17.20;99.90
7411;DHT22;3747;48.628;9.058;2022-07-25T03:27:51;17.00;99.90
7411;DHT22;3747;48.628;9.058;2022-07-25T03:30:18;16.80;99.90
7411;DHT22;3747;48.628;9.058;2022-07-25T03:32:45;16.60;99.90
7411;DHT22;3747;48.628;9.058;2022-07-25T03:35:12;16.50;99.90
7411;DHT22;3747;48.628;9.058;2022-07-25T03:37:41;16.30;99.90
7411;DHT22;3747;48.628;9.058;2022-07-25T03:40:08;16.20;99.90
7411;DHT22;3747;48.628;9.058;2022-07-25T03:42:35;16.10;99.90
7411;DHT22;3747;48.628;9.058;2022-07-25T03:45:02;16.00;99.90
7411;DHT22;3747;48.628;9.058;2022-07-25T03:47:29;16.00;99.90
7411;DHT22;3747;48.628;9.058;2022-07-25T03:49:55;16.00;99.90
7411;DHT22;3747;48.628;9.058;2022-07-25T03:52:22;16.00;99.90
7411;DHT22;3747;48.628;9.058;2022-07-25T03:54:50;15.90;99.90
7411;DHT22;3747;48.628;9.058;2022-07-25T03:57:17;15.90;99.90
7411;DHT22;3747;48.628;9.058;2022-07-25T03:59:43;15.90;99.90
7411;DHT22;3747;48.628;9.058;2022-07-25T04:02:10;15.80;99.90
7411;DHT22;3747;48.628;9.058;2022-07-25T04:04:37;15.90;99.90
7411;DHT22;3747;48.628;9.058;2022-07-25T04:07:03;15.90;99.90
7411;DHT22;3747;48.628;9.058;2022-07-25T04:09:30;15.90;99.90
7411;DHT22;3747;48.628;9.058;2022-07-25T04:11:58;15.90;99.90
7411;DHT22;3747;48.628;9.058;2022-07-25T04:14:25;15.90;99.90
7411;DHT22;3747;48.628;9.058;2022-07-25T04:16:51;16.00;99.90
7411;DHT22;3747;48.628;9.058;2022-07-25T04:19:18;16.10;99.90
7411;DHT22;3747;48.628;9.058;2022-07-25T04:21:45;16.20;99.90
7411;DHT22;3747;48.628;9.058;2022-07-25T04:24:11;16.30;99.90
7411;DHT22;3747;48.628;9.058;2022-07-25T04:26:38;16.40;99.90
7411;DHT22;3747;48.628;9.058;2022-07-25T04:29:06;16.60;99.90
7411;DHT22;3747;48.628;9.058;2022-07-25T04:31:32;16.70;99.90
7411;DHT22;3747;48.628;9.058;2022-07-25T04:33:59;16.80;99.90
7411;DHT22;3747;48.628;9.058;2022-07-25T04:36:27;17.00;99.90
7411;DHT22;3747;48.628;9.058;2022-07-25T04:38:54;17.10;99.90
7411;DHT22;3747;48.628;9.058;2022-07-25T04:41:21;17.20;99.90
7411;DHT22;3747;48.628;9.058;2022-07-25T04:43:47;17.30;99.90
7411;DHT22;3747;48.628;9.058;2022-07-25T04:46:19;17.50;99.90
7411;DHT22;3747;48.628;9.058;2022-07-25T04:48:45;17.70;99.90
7411;DHT22;3747;48.628;9.058;2022-07-25T04:51:12;17.90;99.90
7411;DHT22;3747;48.628;9.058;2022-07-25T04:53:39;18.10;99.90
7411;DHT22;3747;48.628;9.058;2022-07-25T04:56:06;18.20;99.90
7411;DHT22;3747;48.628;9.058;2022-07-25T04:58:32;18.40;99.90
7411;DHT22;3747;48.628;9.058;2022-07-25T05:00:59;18.70;99.90
7411;DHT22;3747;48.628;9.058;2022-07-25T05:03:27;19.00;99.90
7411;DHT22;3747;48.628;9.058;2022-07-25T05:05:54;19.20;99.90
7411;DHT22;3747;48.628;9.058;2022-07-25T05:08:21;19.50;99.90
7411;DHT22;3747;48.628;9.058;2022-07-25T05:10:47;19.80;99.90
7411;DHT22;3747;48.628;9.058;2022-07-25T05:13:14;20.10;99.90
7411;DHT22;3747;48.628;9.058;2022-07-25T05:15:41;20.40;99.90
7411;DHT22;3747;48.628;9.058;2022-07-25T05:18:08;20.80;99.90
7411;DHT22;3747;48.628;9.058;2022-07-25T05:20:36;20.90;99.90
7411;DHT22;3747;48.628;9.058;2022-07-25T05:23:03;21.00;99.90
7411;DHT22;3747;48.628;9.058;2022-07-25T05:25:29;21.20;99.90
7411;DHT22;3747;48.628;9.058;2022-07-25T05:27:56;21.40;99.90
7411;DHT22;3747;48.628;9.058;2022-07-25T05:30:23;21.70;99.90
7411;DHT22;3747;48.628;9.058;2022-07-25T05:32:50;21.90;99.90
7411;DHT22;3747;48.628;9.058;2022-07-25T05:35:17;22.20;99.90
7411;DHT22;3747;48.628;9.058;2022-07-25T05:37:45;22.50;99.90
7411;DHT22;3747;48.628;9.058;2022-07-25T05:40:12;22.70;99.90
7411;DHT22;3747;48.628;9.058;2022-07-25T05:42:39;22.90;99.90
7411;DHT22;3747;48.628;9.058;2022-07-25T05:45:06;23.20;99.90
7411;DHT22;3747;48.628;9.058;2022-07-25T05:47:33;23.10;99.90
7411;DHT22;3747;48.628;9.058;2022-07-25T05:50:00;23.20;99.90
7411;DHT22;3747;48.628;9.058;2022-07-25T05:52:27;23.50;99.90
7411;DHT22;3747;48.628;9.058;2022-07-25T05:54:54;23.90;99.90
7411;DHT22;3747;48.628;9.058;2022-07-25T05:57:21;24.20;99.90
7411;DHT22;3747;48.628;9.058;2022-07-25T05:59:48;24.40;99.90
7411;DHT22;3747;48.628;9.058;2022-07-25T06:02:14;24.70;99.90
7411;DHT22;3747;48.628;9.058;2022-07-25T06:04:41;25.00;99.90
7411;DHT22;3747;48.628;9.058;2022-07-25T06:07:08;25.10;99.90
7411;DHT22;3747;48.628;9.058;2022-07-25T06:09:35;25.40;99.90
7411;DHT22;3747;48.628;9.058;2022-07-25T06:12:03;25.60;99.90
7411;DHT22;3747;48.628;9.058;2022-07-25T06:14:30;25.80;99.90
7411;DHT22;3747;48.628;9.058;2022-07-25T06:16:57;26.00;99.90
7411;DHT22;3747;48.628;9.058;2022-07-25T06:19:24;25.90;99.90
7411;DHT22;3747;48.628;9.058;2022-07-25T06:21:50;26.20;99.90
7411;DHT22;3747;48.628;9.058;2022-07-25T06:24:17;26.40;99.90
7411;DHT22;3747;48.628;9.058;2022-07-25T06:26:44;26.80;99.90
7411;DHT22;3747;48.628;9.058;2022-07-25T06:29:12;27.00;99.90
7411;DHT22;3747;48.628;9.058;2022-07-25T06:31:39;26.70;99.90
7411;DHT22;3747;48.628;9.058;2022-07-25T06:34:05;26.80;99.90
7411;DHT22;3747;48.628;9.058;2022-07-25T06:36:32;27.10;99.90
7411;DHT22;3747;48.628;9.058;2022-07-25T06:38:59;27.20;99.90
7411;DHT22;3747;48.628;9.058;2022-07-25T06:41:25;27.40;99.90
7411;DHT22;3747;48.628;9.058;2022-07-25T06:43:52;27.50;99.90
7411;DHT22;3747;48.628;9.058;2022-07-25T06:46:20;27.40;99.90
7411;DHT22;3747;48.628;9.058;2022-07-25T06:48:47;27.30;99.90
7411;DHT22;3747;48.628;9.058;2022-07-25T06:51:13;27.70;99.90
7411;DHT22;3747;48.628;9.058;2022-07-25T06:53:40;27.70;99.90
7411;DHT22;3747;48.628;9.058;2022-07-25T06:56:07;27.80;99.90
7411;DHT22;3747;48.628;9.058;2022-07-25T06:58:34;28.00;99.90
7411;DHT22;3747;48.628;9.058;2022-07-25T07:01:00;28.20;99.90
7411;DHT22;3747;48.628;9.058;2022-07-25T07:03:28;28.90;99.90
7411;DHT22;3747;48.628;9.058;2022-07-25T07:05:56;29.30;99.90
7411;DHT22;3747;48.628;9.058;2022-07-25T07:08:23;29.50;99.90
7411;DHT22;3747;48.628;9.058;2022-07-25T07:10:49;29.40;99.90
7411;DHT22;3747;48.628;9.058;2022-07-25T07:13:16;29.40;99.90
7411;DHT22;3747;48.628;9.058;2022-07-25T07:15:44;29.60;99.90
7411;DHT22;3747;48.628;9.058;2022-07-25T07:18:13;29.90;99.90
7411;DHT22;3747;48.628;9.058;2022-07-25T07:20:41;30.00;99.90
7411;DHT22;3747;48.628;9.058;2022-07-25T07:23:08;30.00;99.90
7411;DHT22;3747;48.628;9.058;2022-07-25T07:25:35;30.20;99.90
7411;DHT22;3747;48.628;9.058;2022-07-25T07:28:03;30.60;99.90
7411;DHT22;3747;48.628;9.058;2022-07-25T07:30:30;30.90;99.90
7411;DHT22;3747;48.628;9.058;2022-07-25T07:32:57;31.00;99.90
7411;DHT22;3747;48.628;9.058;2022-07-25T07:35:24;31.30;99.90
7411;DHT22;3747;48.628;9.058;2022-07-25T07:37:52;30.80;99.90
7411;DHT22;3747;48.628;9.058;2022-07-25T07:40:19;30.80;99.90
7411;DHT22;3747;48.628;9.058;2022-07-25T07:42:47;30.90;99.90
7411;DHT22;3747;48.628;9.058;2022-07-25T07:45:17;31.30;99.90
7411;DHT22;3747;48.628;9.058;2022-07-25T07:47:44;31.10;99.90
7411;DHT22;3747;48.628;9.058;2022-07-25T07:50:13;31.00;99.90
7411;DHT22;3747;48.628;9.058;2022-07-25T07:52:40;31.20;99.90
7411;DHT22;3747;48.628;9.058;2022-07-25T07:55:10;31.40;99.90
7411;DHT22;3747;48.628;9.058;2022-07-25T07:57:54;31.80;99.90
7411;DHT22;3747;48.628;9.058;2022-07-25T08:00:22;32.20;99.90
7411;DHT22;3747;48.628;9.058;2022-07-25T08:02:51;31.80;99.90
7411;DHT22;3747;48.628;9.058;2022-07-25T08:05:21;32.10;99.90
7411;DHT22;3747;48.628;9.058;2022-07-25T08:07:49;32.10;99.90
7411;DHT22;3747;48.628;9.058;2022-07-25T08:10:19;32.20;99.90
7411;DHT22;3747;48.628;9.058;2022-07-25T08:12:46;32.20;99.90
7411;DHT22;3747;48.628;9.058;2022-07-25T08:15:14;32.50;99.90
7411;DHT22;3747;48.628;9.058;2022-07-25T08:17:42;32.40;99.90
7411;DHT22;3747;48.628;9.058;2022-07-25T08:20:10;32.30;99.90
7411;DHT22;3747;48.628;9.058;2022-07-25T08:22:38;32.50;99.90
7411;DHT22;3747;48.628;9.058;2022-07-25T08:25:06;32.30;99.90
7411;DHT22;3747;48.628;9.058;2022-07-25T08:27:35;32.40;99.90
7411;DHT22;3747;48.628;9.058;2022-07-25T08:30:03;32.30;99.90
7411;DHT22;3747;48.628;9.058;2022-07-25T08:32:31;32.20;99.90
7411;DHT22;3747;48.628;9.058;2022-07-25T08:34:58;32.10;99.90
7411;DHT22;3747;48.628;9.058;2022-07-25T08:37:26;32.30;99.90
7411;DHT22;3747;48.628;9.058;2022-07-25T08:39:54;32.40;99.90
7411;DHT22;3747;48.628;9.058;2022-07-25T08:42:20;32.80;99.90
7411;DHT22;3747;48.628;9.058;2022-07-25T08:44:55;33.30;99.90
7411;DHT22;3747;48.628;9.058;2022-07-25T08:47:23;33.40;99.90
7411;DHT22;3747;48.628;9.058;2022-07-25T08:49:50;33.00;99.90
7411;DHT22;3747;48.628;9.058;2022-07-25T08:52:17;33.20;99.10
7411;DHT22;3747;48.628;9.058;2022-07-25T08:54:44;33.40;99.90
7411;DHT22;3747;48.628;9.058;2022-07-25T08:57:12;33.40;99.00
7411;DHT22;3747;48.628;9.058;2022-07-25T08:59:38;33.50;97.80
7411;DHT22;3747;48.628;9.058;2022-07-25T09:02:06;33.90;98.40
7411;DHT22;3747;48.628;9.058;2022-07-25T09:04:35;33.90;98.10
7411;DHT22;3747;48.628;9.058;2022-07-25T09:07:03;34.20;96.90
7411;DHT22;3747;48.628;9.058;2022-07-25T09:09:31;34.60;96.70
7411;DHT22;3747;48.628;9.058;2022-07-25T09:11:57;34.90;95.40
7411;DHT22;3747;48.628;9.058;2022-07-25T09:14:24;34.70;96.20
7411;DHT22;3747;48.628;9.058;2022-07-25T09:16:51;34.40;96.20
7411;DHT22;3747;48.628;9.058;2022-07-25T09:19:21;34.40;95.50
7411;DHT22;3747;48.628;9.058;2022-07-25T09:21:58;34.40;95.50
7411;DHT22;3747;48.628;9.058;2022-07-25T09:24:26;34.00;96.70
7411;DHT22;3747;48.628;9.058;2022-07-25T09:26:54;34.60;96.40
7411;DHT22;3747;48.628;9.058;2022-07-25T09:29:24;35.40;96.20
7411;DHT22;3747;48.628;9.058;2022-07-25T09:31:53;35.60;96.10
7411;DHT22;3747;48.628;9.058;2022-07-25T09:34:35;35.40;96.70
7411;DHT22;3747;48.628;9.058;2022-07-25T09:37:04;35.60;94.40
7411;DHT22;3747;48.628;9.058;2022-07-25T09:39:40;35.40;93.60
7411;DHT22;3747;48.628;9.058;2022-07-25T09:42:31;35.80;93.10
7411;DHT22;3747;48.628;9.058;2022-07-25T09:45:03;35.90;93.00
7411;DHT22;3747;48.628;9.058;2022-07-25T09:47:31;35.70;93.00
7411;DHT22;3747;48.628;9.058;2022-07-25T09:50:00;35.40;94.30
7411;DHT22;3747;48.628;9.058;2022-07-25T09:52:27;35.50;93.60
7411;DHT22;3747;48.628;9.058;2022-07-25T09:54:54;35.60;94.20
7411;DHT22;3747;48.628;9.058;2022-07-25T09:57:20;35.70;92.20
7411;DHT22;3747;48.628;9.058;2022-07-25T09:59:48;35.90;91.00
7411;DHT22;3747;48.628;9.058;2022-07-25T10:02:25;36.10;90.70
7411;DHT22;3747;48.628;9.058;2022-07-25T10:05:06;36.50;90.30
7411;DHT22;3747;48.628;9.058;2022-07-25T10:07:36;36.40;90.20
7411;DHT22;3747;48.628;9.058;2022-07-25T10:10:04;36.40;84.30
7411;DHT22;3747;48.628;9.058;2022-07-25T10:12:31;36.70;88.00
7411;DHT22;3747;48.628;9.058;2022-07-25T10:15:06;36.40;83.80
7411;DHT22;3747;48.628;9.058;2022-07-25T10:17:34;36.20;82.60
7411;DHT22;3747;48.628;9.058;2022-07-25T10:20:02;36.30;81.20
7411;DHT22;3747;48.628;9.058;2022-07-25T10:22:40;36.60;83.70
7411;DHT22;3747;48.628;9.058;2022-07-25T10:25:10;36.60;78.10
7411;DHT22;3747;48.628;9.058;2022-07-25T10:27:41;36.60;80.20
7411;DHT22;3747;48.628;9.058;2022-07-25T10:30:17;36.50;82.50
7411;DHT22;3747;48.628;9.058;2022-07-25T10:32:54;35.80;85.90
7411;DHT22;3747;48.628;9.058;2022-07-25T10:35:21;36.50;80.70
7411;DHT22;3747;48.628;9.058;2022-07-25T10:37:51;36.40;75.30
7411;DHT22;3747;48.628;9.058;2022-07-25T10:40:25;36.50;74.30
7411;DHT22;3747;48.628;9.058;2022-07-25T10:42:56;36.60;72.70
7411;DHT22;3747;48.628;9.058;2022-07-25T10:45:25;36.50;71.10
7411;DHT22;3747;48.628;9.058;2022-07-25T10:47:53;36.20;73.80
7411;DHT22;3747;48.628;9.058;2022-07-25T10:50:21;36.20;71.40
7411;DHT22;3747;48.628;9.058;2022-07-25T10:52:59;36.10;72.10
7411;DHT22;3747;48.628;9.058;2022-07-25T10:55:27;36.00;71.70
7411;DHT22;3747;48.628;9.058;2022-07-25T10:57:59;35.90;70.80
7411;DHT22;3747;48.628;9.058;2022-07-25T11:00:26;35.90;74.70
7411;DHT22;3747;48.628;9.058;2022-07-25T11:02:55;36.10;69.80
7411;DHT22;3747;48.628;9.058;2022-07-25T11:05:22;36.30;70.70
7411;DHT22;3747;48.628;9.058;2022-07-25T11:07:49;37.00;71.90
7411;DHT22;3747;48.628;9.058;2022-07-25T11:10:24;37.50;68.20
7411;DHT22;3747;48.628;9.058;2022-07-25T11:12:50;37.80;67.30
7411;DHT22;3747;48.628;9.058;2022-07-25T11:15:21;37.30;68.00
7411;DHT22;3747;48.628;9.058;2022-07-25T11:17:50;37.30;65.30
7411;DHT22;3747;48.628;9.058;2022-07-25T11:20:16;37.40;67.80
7411;DHT22;3747;48.628;9.058;2022-07-25T11:22:50;38.00;65.90
7411;DHT22;3747;48.628;9.058;2022-07-25T11:25:20;38.10;65.90
7411;DHT22;3747;48.628;9.058;2022-07-25T11:27:49;37.70;66.10
7411;DHT22;3747;48.628;9.058;2022-07-25T11:30:20;37.60;61.90
7411;DHT22;3747;48.628;9.058;2022-07-25T11:32:49;37.70;68.70
7411;DHT22;3747;48.628;9.058;2022-07-25T11:35:19;38.20;67.60
7411;DHT22;3747;48.628;9.058;2022-07-25T11:37:47;38.60;64.50
7411;DHT22;3747;48.628;9.058;2022-07-25T11:40:15;38.90;62.90
7411;DHT22;3747;48.628;9.058;2022-07-25T11:42:45;38.50;65.00
7411;DHT22;3747;48.628;9.058;2022-07-25T11:45:17;38.90;62.80
7411;DHT22;3747;48.628;9.058;2022-07-25T11:47:44;38.60;59.00
7411;DHT22;3747;48.628;9.058;2022-07-25T11:50:11;38.40;63.70
7411;DHT22;3747;48.628;9.058;2022-07-25T11:52:41;39.00;65.10
7411;DHT22;3747;48.628;9.058;2022-07-25T11:55:10;39.30;59.80
7411;DHT22;3747;48.628;9.058;2022-07-25T11:57:38;39.20;58.70
7411;DHT22;3747;48.628;9.058;2022-07-25T12:00:13;38.90;59.50
7411;DHT22;3747;48.628;9.058;2022-07-25T12:02:40;37.10;58.30
7411;DHT22;3747;48.628;9.058;2022-07-25T12:05:09;36.70;62.10
7411;DHT22;3747;48.628;9.058;2022-07-25T12:07:39;36.30;61.90
7411;DHT22;3747;48.628;9.058;2022-07-25T12:10:08;35.70;66.60
7411;DHT22;3747;48.628;9.058;2022-07-25T12:12:42;36.40;68.70
7411;DHT22;3747;48.628;9.058;2022-07-25T12:15:11;36.90;65.50
7411;DHT22;3747;48.628;9.058;2022-07-25T12:17:39;36.70;60.00
7411;DHT22;3747;48.628;9.058;2022-07-25T12:20:13;35.50;63.60
7411;DHT22;3747;48.628;9.058;2022-07-25T12:22:40;35.50;64.20
7411;DHT22;3747;48.628;9.058;2022-07-25T12:25:07;35.40;66.70
7411;DHT22;3747;48.628;9.058;2022-07-25T12:27:34;35.60;62.70
7411;DHT22;3747;48.628;9.058;2022-07-25T12:30:01;36.10;64.80
7411;DHT22;3747;48.628;9.058;2022-07-25T12:32:30;37.00;62.40
7411;DHT22;3747;48.628;9.058;2022-07-25T12:34:56;36.40;60.00
7411;DHT22;3747;48.628;9.058;2022-07-25T12:37:24;35.50;64.80
7411;DHT22;3747;48.628;9.058;2022-07-25T12:39:51;34.80;65.10
7411;DHT22;3747;48.628;9.058;2022-07-25T12:42:18;35.40;64.20
7411;DHT22;3747;48.628;9.058;2022-07-25T12:44:45;36.00;66.40
7411;DHT22;3747;48.628;9.058;2022-07-25T12:47:11;36.80;63.40
7411;DHT22;3747;48.628;9.058;2022-07-25T12:49:39;36.30;62.60
7411;DHT22;3747;48.628;9.058;2022-07-25T12:52:06;35.30;63.40
7411;DHT22;3747;48.628;9.058;2022-07-25T12:54:33;34.70;65.50
7411;DHT22;3747;48.628;9.058;2022-07-25T12:57:00;34.10;65.70
7411;DHT22;3747;48.628;9.058;2022-07-25T12:59:27;33.70;67.00
7411;DHT22;3747;48.628;9.058;2022-07-25T13:01:53;33.60;67.40
7411;DHT22;3747;48.628;9.058;2022-07-25T13:04:20;33.60;67.70
7411;DHT22;3747;48.628;9.058;2022-07-25T13:06:48;33.80;68.50
7411;DHT22;3747;48.628;9.058;2022-07-25T13:09:15;34.10;68.40
7411;DHT22;3747;48.628;9.058;2022-07-25T13:11:41;34.50;66.10
7411;DHT22;3747;48.628;9.058;2022-07-25T13:14:08;35.50;67.60
7411;DHT22;3747;48.628;9.058;2022-07-25T13:16:35;36.60;70.00
7411;DHT22;3747;48.628;9.058;2022-07-25T13:19:02;37.20;66.60
7411;DHT22;3747;48.628;9.058;2022-07-25T13:21:29;37.20;62.60
7411;DHT22;3747;48.628;9.058;2022-07-25T13:23:57;36.30;65.10
7411;DHT22;3747;48.628;9.058;2022-07-25T13:26:24;35.70;64.30
7411;DHT22;3747;48.628;9.058;2022-07-25T13:28:51;35.40;63.40
7411;DHT22;3747;48.628;9.058;2022-07-25T13:31:18;34.70;63.30
7411;DHT22;3747;48.628;9.058;2022-07-25T13:33:46;34.20;66.20
7411;DHT22;3747;48.628;9.058;2022-07-25T13:36:13;34.40;67.70
7411;DHT22;3747;48.628;9.058;2022-07-25T13:38:40;34.40;66.50
7411;DHT22;3747;48.628;9.058;2022-07-25T13:41:09;34.40;66.90
7411;DHT22;3747;48.628;9.058;2022-07-25T13:43:36;34.20;66.80
7411;DHT22;3747;48.628;9.058;2022-07-25T13:46:03;34.20;68.10
7411;DHT22;3747;48.628;9.058;2022-07-25T13:48:30;34.20;67.40
7411;DHT22;3747;48.628;9.058;2022-07-25T13:50:57;34.40;66.80
7411;DHT22;3747;48.628;9.058;2022-07-25T13:53:24;34.80;72.50
7411;DHT22;3747;48.628;9.058;2022-07-25T13:55:51;34.70;67.20
7411;DHT22;3747;48.628;9.058;2022-07-25T13:58:19;34.20;68.80
7411;DHT22;3747;48.628;9.058;2022-07-25T14:00:45;34.00;70.80
7411;DHT22;3747;48.628;9.058;2022-07-25T14:03:12;33.70;69.20
7411;DHT22;3747;48.628;9.058;2022-07-25T14:05:39;33.50;70.70
7411;DHT22;3747;48.628;9.058;2022-07-25T14:08:06;33.10;68.70
7411;DHT22;3747;48.628;9.058;2022-07-25T14:10:33;32.70;71.10
7411;DHT22;3747;48.628;9.058;2022-07-25T14:13:00;32.10;74.50
7411;DHT22;3747;48.628;9.058;2022-07-25T14:15:29;30.60;84.60
7411;DHT22;3747;48.628;9.058;2022-07-25T14:17:56;28.00;96.70
7411;DHT22;3747;48.628;9.058;2022-07-25T14:20:23;27.20;99.90
7411;DHT22;3747;48.628;9.058;2022-07-25T14:22:50;27.70;99.90
7411;DHT22;3747;48.628;9.058;2022-07-25T14:25:17;29.20;99.90
7411;DHT22;3747;48.628;9.058;2022-07-25T14:27:43;30.80;99.90
7411;DHT22;3747;48.628;9.058;2022-07-25T14:30:11;31.90;99.90
7411;DHT22;3747;48.628;9.058;2022-07-25T14:32:39;31.90;97.50
7411;DHT22;3747;48.628;9.058;2022-07-25T14:35:07;31.30;98.10
7411;DHT22;3747;48.628;9.058;2022-07-25T14:37:33;31.40;96.00
7411;DHT22;3747;48.628;9.058;2022-07-25T14:40:00;31.30;93.60
7411;DHT22;3747;48.628;9.058;2022-07-25T14:42:27;31.30;93.90
7411;DHT22;3747;48.628;9.058;2022-07-25T14:44:54;32.20;92.60
7411;DHT22;3747;48.628;9.058;2022-07-25T14:47:20;33.50;92.00
7411;DHT22;3747;48.628;9.058;2022-07-25T14:49:48;34.30;87.50
7411;DHT22;3747;48.628;9.058;2022-07-25T14:52:15;34.30;87.30
7411;DHT22;3747;48.628;9.058;2022-07-25T14:54:43;34.40;84.90
7411;DHT22;3747;48.628;9.058;2022-07-25T14:57:09;34.20;82.70
7411;DHT22;3747;48.628;9.058;2022-07-25T14:59:36;33.20;87.30
7411;DHT22;3747;48.628;9.058;2022-07-25T15:02:03;33.40;86.20
7411;DHT22;3747;48.628;9.058;2022-07-25T15:04:29;34.30;84.60
7411;DHT22;3747;48.628;9.058;2022-07-25T15:06:57;35.00;85.70
7411;DHT22;3747;48.628;9.058;2022-07-25T15:09:24;35.40;83.40
7411;DHT22;3747;48.628;9.058;2022-07-25T15:11:51;35.10;80.40
7411;DHT22;3747;48.628;9.058;2022-07-25T15:14:17;34.70;80.20
7411;DHT22;3747;48.628;9.058;2022-07-25T15:16:44;35.00;78.80
7411;DHT22;3747;48.628;9.058;2022-07-25T15:19:11;34.20;80.40
7411;DHT22;3747;48.628;9.058;2022-07-25T15:21:38;33.10;80.70
7411;DHT22;3747;48.628;9.058;2022-07-25T15:24:06;32.90;82.80
7411;DHT22;3747;48.628;9.058;2022-07-25T15:26:33;33.00;81.80
7411;DHT22;3747;48.628;9.058;2022-07-25T15:29:00;33.90;81.30
7411;DHT22;3747;48.628;9.058;2022-07-25T15:31:27;33.60;80.20
7411;DHT22;3747;48.628;9.058;2022-07-25T15:33:53;33.30;79.60
7411;DHT22;3747;48.628;9.058;2022-07-25T15:36:20;32.90;83.40
7411;DHT22;3747;48.628;9.058;2022-07-25T15:38:47;32.60;84.60
7411;DHT22;3747;48.628;9.058;2022-07-25T15:41:15;32.70;81.70
7411;DHT22;3747;48.628;9.058;2022-07-25T15:43:42;33.20;82.40
7411;DHT22;3747;48.628;9.058;2022-07-25T15:46:10;33.40;86.10
7411;DHT22;3747;48.628;9.058;2022-07-25T15:48:37;32.80;81.60
7411;DHT22;3747;48.628;9.058;2022-07-25T15:51:05;32.40;82.00
7411;DHT22;3747;48.628;9.058;2022-07-25T15:53:32;31.50;83.60
7411;DHT22;3747;48.628;9.058;2022-07-25T15:55:58;31.00;85.90
7411;DHT22;3747;48.628;9.058;2022-07-25T15:58:26;30.70;87.00
7411;DHT22;3747;48.628;9.058;2022-07-25T16:00:53;30.50;87.90
7411;DHT22;3747;48.628;9.058;2022-07-25T16:03:20;31.10;87.50
7411;DHT22;3747;48.628;9.058;2022-07-25T16:05:46;31.10;87.30